sensor_id;sensor_type;location;lat;lon;timestamp;temperature;humidity
3466;DHT22;1747;48.884;9.160;2024-02-23T00:02:14;8.30;99.90
3466;DHT22;1747;48.884;9.160;2024-02-23T00:04:40;8.30;99.90
3466;DHT22;1747;48.884;9.160;2024-02-23T00:07:08;8.30;99.90
3466;DHT22;1747;48.884;9.160;2024-02-23T00:09:34;8.40;99.90
3466;DHT22;1747;48.884;9.160;2024-02-23T00:12:01;8.30;99.90
3466;DHT22;1747;48.884;9.160;2024-02-23T00:14:29;8.30;99.90
3466;DHT22;1747;48.884;9.160;2024-02-23T00:16:56;8.30;99.90
3466;DHT22;1747;48.884;9.160;2024-02-23T00:19:25;8.30;99.90
3466;DHT22;1747;48.884;9.160;2024-02-23T00:21:52;8.20;99.90
3466;DHT22;1747;48.884;9.160;2024-02-23T00:24:19;8.30;99.90
3466;DHT22;1747;48.884;9.160;2024-02-23T00:26:47;8.30;99.90
3466;DHT22;1747;48.884;9.160;2024-02-23T00:29:14;8.30;99.90
3466;DHT22;1747;48.884;9.160;2024-02-23T00:31:41;8.30;99.90
3466;DHT22;1747;48.884;9.160;2024-02-23T00:34:08;8.20;99.90
3466;DHT22;1747;48.884;9.160;2024-02-23T00:36:38;8.20;99.90
3466;DHT22;1747;48.884;9.160;2024-02-23T00:39:05;8.20;99.90
3466;DHT22;1747;48.884;9.160;2024-02-23T00:41:32;8.20;99.90
3466;DHT22;1747;48.884;9.160;2024-02-23T00:43:59;8.20;99.90
3466;DHT22;1747;48.884;9.160;2024-02-23T00:46:26;8.20;99.90
3466;DHT22;1747;48.884;9.160;2024-02-23T00:48:53;8.20;99.90
3466;DHT22;1747;48.884;9.160;2024-02-23T00:51:20;8.30;99.90
3466;DHT22;1747;48.884;9.160;2024-02-23T00:53:48;8.20;99.90
3466;DHT22;1747;48.884;9.160;2024-02-23T00:56:15;8.20;99.90
3466;DHT22;1747;48.884;9.160;2024-02-23T00:58:42;8.20;99.90
3466;DHT22;1747;48.884;9.160;2024-02-23T01:01:09;8.20;99.90
3466;DHT22;1747;48.884;9.160;2024-02-23T01:03:36;8.20;99.90
3466;DHT22;1747;48.884;9.160;2024-02-23T01:06:03;8.30;99.90
3466;DHT22;1747;48.884;9.160;2024-02-23T01:08:30;8.30;99.90
3466;DHT22;1747;48.884;9.160;2024-02-23T01:10:58;8.30;99.90
3466;DHT22;1747;48.884;9.160;2024-02-23T01:13:25;8.30;99.90
3466;DHT22;1747;48.884;9.160;2024-02-23T01:15:52;8.30;99.90
3466;DHT22;1747;48.884;9.160;2024-02-23T01:18:19;8.30;99.90
3466;DHT22;1747;48.884;9.160;2024-02-23T01:20:46;8.20;99.90
3466;DHT22;1747;48.884;9.160;2024-02-23T01:23:13;8.30;99.90
3466;DHT22;1747;48.884;9.160;2024-02-23T01:25:40;8.20;99.90
3466;DHT22;1747;48.884;9.160;2024-02-23T01:28:08;8.30;99.90
3466;DHT22;1747;48.884;9.160;2024-02-23T01:30:35;8.30;99.90
3466;DHT22;1747;48.884;9.160;2024-02-23T01:33:02;8.30;99.90
3466;DHT22;1747;48.884;9.160;2024-02-23T01:35:29;8.30;99.90
3466;DHT22;1747;48.884;9.160;2024-02-23T01:37:56;8.30;99.90
3466;DHT22;1747;48.884;9.160;2024-02-23T01:40:23;8.30;99.90
3466;DHT22;1747;48.884;9.160;2024-02-23T01:43:00;8.30;99.90
3466;DHT22;1747;48.884;9.160;2024-02-23T01:45:29;8.30;99.90
3466;DHT22;1747;48.884;9.160;2024-02-23T01:47:56;8.30;99.90
3466;DHT22;1747;48.884;9.160;2024-02-23T01:50:24;8.30;99.90
3466;DHT22;1747;48.884;9.160;2024-02-23T01:52:52;8.30;99.90
3466;DHT22;1747;48.884;9.160;2024-02-23T01:55:20;8.30;99.90
3466;DHT22;1747;48.884;9.160;2024-02-23T01:57:47;8.20;99.90
3466;DHT22;1747;48.884;9.160;2024-02-23T02:00:16;8.20;99.90
3466;DHT22;1747;48.884;9.160;2024-02-23T02:02:45;8.10;99.90
3466;DHT22;1747;48.884;9.160;2024-02-23T02:05:13;8.20;99.90
3466;DHT22;1747;48.884;9.160;2024-02-23T02:07:41;8.20;99.90
3466;DHT22;1747;48.884;9.160;2024-02-23T02:10:09;8.10;99.90
3466;DHT22;1747;48.884;9.160;2024-02-23T02:12:36;8.10;99.90
3466;DHT22;1747;48.884;9.160;2024-02-23T02:15:04;8.20;99.90
3466;DHT22;1747;48.884;9.160;2024-02-23T02:17:31;8.20;99.90
3466;DHT22;1747;48.884;9.160;2024-02-23T02:20:02;8.20;99.90
3466;DHT22;1747;48.884;9.160;2024-02-23T02:22:32;8.10;99.90
3466;DHT22;1747;48.884;9.160;2024-02-23T02:24:59;8.10;99.90
3466;DHT22;1747;48.884;9.160;2024-02-23T02:27:26;8.00;99.90
3466;DHT22;1747;48.884;9.160;2024-02-23T02:29:52;8.00;99.90
3466;DHT22;1747;48.884;9.160;2024-02-23T02:32:19;7.90;99.90
3466;DHT22;1747;48.884;9.160;2024-02-23T02:34:46;7.90;99.90
3466;DHT22;1747;48.884;9.160;2024-02-23T02:37:14;7.90;99.90
3466;DHT22;1747;48.884;9.160;2024-02-23T02:39:41;7.70;99.90
3466;DHT22;1747;48.884;9.160;2024-02-23T02:42:08;7.80;99.90
3466;DHT22;1747;48.884;9.160;2024-02-23T02:44:35;7.80;99.90
3466;DHT22;1747;48.884;9.160;2024-02-23T02:47:02;7.80;99.90
3466;DHT22;1747;48.884;9.160;2024-02-23T02:49:29;7.80;99.90
3466;DHT22;1747;48.884;9.160;2024-02-23T02:51:56;7.90;99.90
3466;DHT22;1747;48.884;9.160;2024-02-23T02:54:24;7.80;99.90
3466;DHT22;1747;48.884;9.160;2024-02-23T02:56:51;7.80;99.90
3466;DHT22;1747;48.884;9.160;2024-02-23T02:59:19;7.80;99.90
3466;DHT22;1747;48.884;9.160;2024-02-23T03:01:46;7.80;99.90
3466;DHT22;1747;48.884;9.160;2024-02-23T03:04:13;7.80;99.90
3466;DHT22;1747;48.884;9.160;2024-02-23T03:06:40;7.70;99.90
3466;DHT22;1747;48.884;9.160;2024-02-23T03:09:07;7.60;99.90
3466;DHT22;1747;48.884;9.160;2024-02-23T03:11:36;7.70;99.90
3466;DHT22;1747;48.884;9.160;2024-02-23T03:14:02;7.70;99.90
3466;DHT22;1747;48.884;9.160;2024-02-23T03:16:29;7.70;99.90
3466;DHT22;1747;48.884;9.160;2024-02-23T03:18:57;7.60;99.90
3466;DHT22;1747;48.884;9.160;2024-02-23T03:21:23;7.60;99.90
3466;DHT22;1747;48.884;9.160;2024-02-23T03:23:50;7.60;99.90
3466;DHT22;1747;48.884;9.160;2024-02-23T03:26:17;7.60;99.90
3466;DHT22;1747;48.884;9.160;2024-02-23T03:28:45;7.50;99.90
3466;DHT22;1747;48.884;9.160;2024-02-23T03:31:14;7.50;99.90
3466;DHT22;1747;48.884;9.160;2024-02-23T03:33:41;7.60;99.90
3466;DHT22;1747;48.884;9.160;2024-02-23T03:36:07;7.60;99.90
3466;DHT22;1747;48.884;9.160;2024-02-23T03:38:34;7.60;99.90
3466;DHT22;1747;48.884;9.160;2024-02-23T03:41:01;7.60;99.90
3466;DHT22;1747;48.884;9.160;2024-02-23T03:43:28;7.60;99.90
3466;DHT22;1747;48.884;9.160;2024-02-23T03:45:56;7.60;99.90
3466;DHT22;1747;48.884;9.160;2024-02-23T03:48:23;7.70;99.90
3466;DHT22;1747;48.884;9.160;2024-02-23T03:50:50;7.50;99.90
3466;DHT22;1747;48.884;9.160;2024-02-23T03:53:16;7.60;99.90
3466;DHT22;1747;48.884;9.160;2024-02-23T03:55:43;7.70;99.90
3466;DHT22;1747;48.884;9.160;2024-02-23T03:58:10;7.60;99.90
3466;DHT22;1747;48.884;9.160;2024-02-23T04:00:37;7.60;99.90
3466;DHT22;1747;48.884;9.160;2024-02-23T04:03:05;7.70;99.90
3466;DHT22;1747;48.884;9.160;2024-02-23T04:05:32;7.70;99.90
3466;DHT22;1747;48.884;9.160;2024-02-23T04:07:59;7.70;99.90
3466;DHT22;1747;48.884;9.160;2024-02-23T04:10:26;7.70;99.90
3466;DHT22;1747;48.884;9.160;2024-02-23T04:12:52;7.60;99.90
3466;DHT22;1747;48.884;9.160;2024-02-23T04:15:19;7.60;99.90
3466;DHT22;1747;48.884;9.160;2024-02-23T04:17:46;7.60;99.90
3466;DHT22;1747;48.884;9.160;2024-02-23T04:20:15;7.50;99.90
3466;DHT22;1747;48.884;9.160;2024-02-23T04:22:41;7.60;99.90
3466;DHT22;1747;48.884;9.160;2024-02-23T04:25:08;7.50;99.90
3466;DHT22;1747;48.884;9.160;2024-02-23T04:27:35;7.50;99.90
3466;DHT22;1747;48.884;9.160;2024-02-23T04:30:02;7.50;99.90
3466;DHT22;1747;48.884;9.160;2024-02-23T04:32:29;7.40;99.90
3466;DHT22;1747;48.884;9.160;2024-02-23T04:34:56;7.40;99.90
3466;DHT22;1747;48.884;9.160;2024-02-23T04:37:24;7.40;99.90
3466;DHT22;1747;48.884;9.160;2024-02-23T04:39:51;7.30;99.90
3466;DHT22;1747;48.884;9.160;2024-02-23T04:42:18;7.40;99.90
3466;DHT22;1747;48.884;9.160;2024-02-23T04:44:45;7.30;99.90
3466;DHT22;1747;48.884;9.160;2024-02-23T04:47:12;7.30;99.90
3466;DHT22;1747;48.884;9.160;2024-02-23T04:49:39;7.30;99.90
3466;DHT22;1747;48.884;9.160;2024-02-23T04:52:08;7.30;99.90
3466;DHT22;1747;48.884;9.160;2024-02-23T04:54:36;7.30;99.90
3466;DHT22;1747;48.884;9.160;2024-02-23T04:57:03;7.20;99.90
3466;DHT22;1747;48.884;9.160;2024-02-23T04:59:30;7.30;99.90
3466;DHT22;1747;48.884;9.160;2024-02-23T05:01:57;7.20;99.90
3466;DHT22;1747;48.884;9.160;2024-02-23T05:04:24;7.20;99.90
3466;DHT22;1747;48.884;9.160;2024-02-23T05:06:52;7.20;99.90
3466;DHT22;1747;48.884;9.160;2024-02-23T05:09:19;7.20;99.90
3466;DHT22;1747;48.884;9.160;2024-02-23T05:11:47;7.20;99.90
3466;DHT22;1747;48.884;9.160;2024-02-23T05:14:14;7.10;99.90
3466;DHT22;1747;48.884;9.160;2024-02-23T05:16:41;7.10;99.90
3466;DHT22;1747;48.884;9.160;2024-02-23T05:19:07;7.10;99.90
3466;DHT22;1747;48.884;9.160;2024-02-23T05:21:34;7.10;99.90
3466;DHT22;1747;48.884;9.160;2024-02-23T05:24:01;7.00;99.90
3466;DHT22;1747;48.884;9.160;2024-02-23T05:26:28;7.00;99.90
3466;DHT22;1747;48.884;9.160;2024-02-23T05:28:56;6.90;99.90
3466;DHT22;1747;48.884;9.160;2024-02-23T05:31:44;6.90;99.90
3466;DHT22;1747;48.884;9.160;2024-02-23T05:34:11;7.00;99.90
3466;DHT22;1747;48.884;9.160;2024-02-23T05:36:38;7.00;99.90
3466;DHT22;1747;48.884;9.160;2024-02-23T05:39:05;6.90;99.90
3466;DHT22;1747;48.884;9.160;2024-02-23T05:41:33;6.90;99.90
3466;DHT22;1747;48.884;9.160;2024-02-23T05:44:01;6.90;99.90
3466;DHT22;1747;48.884;9.160;2024-02-23T05:46:29;6.90;99.90
3466;DHT22;1747;48.884;9.160;2024-02-23T05:48:57;6.90;99.90
3466;DHT22;1747;48.884;9.160;2024-02-23T05:51:23;6.90;99.90
3466;DHT22;1747;48.884;9.160;2024-02-23T05:53:50;6.90;99.90
3466;DHT22;1747;48.884;9.160;2024-02-23T05:56:17;6.90;99.90
3466;DHT22;1747;48.884;9.160;2024-02-23T05:58:44;6.80;99.90
3466;DHT22;1747;48.884;9.160;2024-02-23T06:01:12;6.80;99.90
3466;DHT22;1747;48.884;9.160;2024-02-23T06:03:39;6.70;99.90
3466;DHT22;1747;48.884;9.160;2024-02-23T06:06:07;6.60;99.90
3466;DHT22;1747;48.884;9.160;2024-02-23T06:08:35;6.60;99.90
3466;DHT22;1747;48.884;9.160;2024-02-23T06:11:02;6.40;99.90
3466;DHT22;1747;48.884;9.160;2024-02-23T06:13:29;6.20;99.90
3466;DHT22;1747;48.884;9.160;2024-02-23T06:15:56;6.10;99.90
3466;DHT22;1747;48.884;9.160;2024-02-23T06:18:24;6.10;99.90
3466;DHT22;1747;48.884;9.160;2024-02-23T06:20:51;6.10;99.90
3466;DHT22;1747;48.884;9.160;2024-02-23T06:23:18;5.90;99.90
3466;DHT22;1747;48.884;9.160;2024-02-23T06:25:44;5.90;99.90
3466;DHT22;1747;48.884;9.160;2024-02-23T06:28:11;5.70;99.90
3466;DHT22;1747;48.884;9.160;2024-02-23T06:30:38;5.50;99.90
3466;DHT22;1747;48.884;9.160;2024-02-23T06:33:05;5.50;99.90
3466;DHT22;1747;48.884;9.160;2024-02-23T06:35:34;5.30;99.90
3466;DHT22;1747;48.884;9.160;2024-02-23T06:38:00;5.20;99.90
3466;DHT22;1747;48.884;9.160;2024-02-23T06:40:27;5.10;99.90
3466;DHT22;1747;48.884;9.160;2024-02-23T06:42:54;5.20;99.90
3466;DHT22;1747;48.884;9.160;2024-02-23T06:45:21;5.30;99.90
3466;DHT22;1747;48.884;9.160;2024-02-23T06:47:51;5.50;99.90
3466;DHT22;1747;48.884;9.160;2024-02-23T06:50:18;5.60;99.90
3466;DHT22;1747;48.884;9.160;2024-02-23T06:52:46;5.70;99.90
3466;DHT22;1747;48.884;9.160;2024-02-23T06:55:15;5.80;99.90
3466;DHT22;1747;48.884;9.160;2024-02-23T06:57:42;5.90;99.90
3466;DHT22;1747;48.884;9.160;2024-02-23T07:00:09;6.00;99.90
3466;DHT22;1747;48.884;9.160;2024-02-23T07:02:37;6.00;99.90
3466;DHT22;1747;48.884;9.160;2024-02-23T07:05:04;5.90;99.90
3466;DHT22;1747;48.884;9.160;2024-02-23T07:07:32;5.80;99.90
3466;DHT22;1747;48.884;9.160;2024-02-23T07:10:00;5.80;99.90
3466;DHT22;1747;48.884;9.160;2024-02-23T07:12:27;5.80;99.90
3466;DHT22;1747;48.884;9.160;2024-02-23T07:14:54;5.90;99.90
3466;DHT22;1747;48.884;9.160;2024-02-23T07:17:21;5.90;99.90
3466;DHT22;1747;48.884;9.160;2024-02-23T07:19:48;6.00;99.90
3466;DHT22;1747;48.884;9.160;2024-02-23T07:22:16;6.10;99.90
3466;DHT22;1747;48.884;9.160;2024-02-23T07:24:43;6.10;99.90
3466;DHT22;1747;48.884;9.160;2024-02-23T07:27:11;6.20;99.90
3466;DHT22;1747;48.884;9.160;2024-02-23T07:29:38;6.30;99.90
3466;DHT22;1747;48.884;9.160;2024-02-23T07:32:06;6.40;99.90
3466;DHT22;1747;48.884;9.160;2024-02-23T07:34:32;6.50;99.90
3466;DHT22;1747;48.884;9.160;2024-02-23T07:36:59;6.60;99.90
3466;DHT22;1747;48.884;9.160;2024-02-23T07:39:26;6.60;99.90
3466;DHT22;1747;48.884;9.160;2024-02-23T07:41:53;6.60;99.90
3466;DHT22;1747;48.884;9.160;2024-02-23T07:44:21;6.60;99.90
3466;DHT22;1747;48.884;9.160;2024-02-23T07:46:48;6.60;99.90
3466;DHT22;1747;48.884;9.160;2024-02-23T07:49:15;6.50;99.90
3466;DHT22;1747;48.884;9.160;2024-02-23T07:51:42;6.70;99.90
3466;DHT22;1747;48.884;9.160;2024-02-23T07:54:09;6.70;99.90
3466;DHT22;1747;48.884;9.160;2024-02-23T07:56:36;6.70;99.90
3466;DHT22;1747;48.884;9.160;2024-02-23T07:59:02;6.90;99.90
3466;DHT22;1747;48.884;9.160;2024-02-23T08:01:31;6.90;99.90
3466;DHT22;1747;48.884;9.160;2024-02-23T08:03:57;6.90;99.90
3466;DHT22;1747;48.884;9.160;2024-02-23T08:06:25;6.70;99.90
3466;DHT22;1747;48.884;9.160;2024-02-23T08:08:52;6.60;99.90
3466;DHT22;1747;48.884;9.160;2024-02-23T08:11:20;6.60;99.90
3466;DHT22;1747;48.884;9.160;2024-02-23T08:13:47;6.50;99.90
3466;DHT22;1747;48.884;9.160;2024-02-23T08:16:16;6.20;99.90
3466;DHT22;1747;48.884;9.160;2024-02-23T08:18:44;6.10;99.90
3466;DHT22;1747;48.884;9.160;2024-02-23T08:21:11;6.00;99.90
3466;DHT22;1747;48.884;9.160;2024-02-23T08:23:38;5.90;99.90
3466;DHT22;1747;48.884;9.160;2024-02-23T08:26:06;6.00;99.90
3466;DHT22;1747;48.884;9.160;2024-02-23T08:28:33;6.20;99.90
3466;DHT22;1747;48.884;9.160;2024-02-23T08:30:59;6.40;99.90
3466;DHT22;1747;48.884;9.160;2024-02-23T08:33:26;6.50;99.90
3466;DHT22;1747;48.884;9.160;2024-02-23T08:35:54;6.90;99.90
3466;DHT22;1747;48.884;9.160;2024-02-23T08:38:21;7.00;99.90
3466;DHT22;1747;48.884;9.160;2024-02-23T08:40:48;7.20;99.90
3466;DHT22;1747;48.884;9.160;2024-02-23T08:43:15;7.10;99.90
3466;DHT22;1747;48.884;9.160;2024-02-23T08:45:42;7.10;99.90
3466;DHT22;1747;48.884;9.160;2024-02-23T08:48:09;6.90;99.90
3466;DHT22;1747;48.884;9.160;2024-02-23T08:50:40;6.70;99.90
3466;DHT22;1747;48.884;9.160;2024-02-23T08:53:08;6.60;99.90
3466;DHT22;1747;48.884;9.160;2024-02-23T08:55:36;6.50;99.90
3466;DHT22;1747;48.884;9.160;2024-02-23T08:58:03;6.50;99.90
3466;DHT22;1747;48.884;9.160;2024-02-23T09:00:31;6.30;99.90
3466;DHT22;1747;48.884;9.160;2024-02-23T09:02:58;6.20;99.90
3466;DHT22;1747;48.884;9.160;2024-02-23T09:05:25;6.20;99.90
3466;DHT22;1747;48.884;9.160;2024-02-23T09:07:52;6.40;99.90
3466;DHT22;1747;48.884;9.160;2024-02-23T09:10:20;6.20;99.90
3466;DHT22;1747;48.884;9.160;2024-02-23T09:12:47;6.30;99.90
3466;DHT22;1747;48.884;9.160;2024-02-23T09:15:14;6.20;99.90
3466;DHT22;1747;48.884;9.160;2024-02-23T09:17:40;6.20;99.90
3466;DHT22;1747;48.884;9.160;2024-02-23T09:20:09;6.10;99.90
3466;DHT22;1747;48.884;9.160;2024-02-23T09:22:36;6.10;99.90
3466;DHT22;1747;48.884;9.160;2024-02-23T09:25:04;6.10;99.90
3466;DHT22;1747;48.884;9.160;2024-02-23T09:27:32;6.10;99.90
3466;DHT22;1747;48.884;9.160;2024-02-23T09:30:02;6.10;99.90
3466;DHT22;1747;48.884;9.160;2024-02-23T09:32:29;6.20;99.90
3466;DHT22;1747;48.884;9.160;2024-02-23T09:34:56;6.20;99.90
3466;DHT22;1747;48.884;9.160;2024-02-23T09:37:24;6.30;99.90
3466;DHT22;1747;48.884;9.160;2024-02-23T09:39:51;6.30;99.90
3466;DHT22;1747;48.884;9.160;2024-02-23T09:42:19;6.30;99.90
3466;DHT22;1747;48.884;9.160;2024-02-23T09:44:57;6.40;99.90
3466;DHT22;1747;48.884;9.160;2024-02-23T09:47:24;6.50;99.90
3466;DHT22;1747;48.884;9.160;2024-02-23T09:49:54;6.50;99.90
3466;DHT22;1747;48.884;9.160;2024-02-23T09:52:21;6.50;99.90
3466;DHT22;1747;48.884;9.160;2024-02-23T09:54:48;6.60;99.90
3466;DHT22;1747;48.884;9.160;2024-02-23T09:57:16;6.80;99.90
3466;DHT22;1747;48.884;9.160;2024-02-23T09:59:44;7.00;99.90
3466;DHT22;1747;48.884;9.160;2024-02-23T10:02:15;7.20;99.90
3466;DHT22;1747;48.884;9.160;2024-02-23T10:04:43;7.10;99.90
3466;DHT22;1747;48.884;9.160;2024-02-23T10:07:10;7.10;99.90
3466;DHT22;1747;48.884;9.160;2024-02-23T10:09:40;7.20;99.90
3466;DHT22;1747;48.884;9.160;2024-02-23T10:12:08;7.20;99.90
3466;DHT22;1747;48.884;9.160;2024-02-23T10:14:35;7.30;99.90
3466;DHT22;1747;48.884;9.160;2024-02-23T10:17:02;7.50;99.90
3466;DHT22;1747;48.884;9.160;2024-02-23T10:19:30;7.80;99.90
3466;DHT22;1747;48.884;9.160;2024-02-23T10:21:58;8.00;99.90
3466;DHT22;1747;48.884;9.160;2024-02-23T10:24:24;8.30;99.90
3466;DHT22;1747;48.884;9.160;2024-02-23T10:26:51;8.00;99.90
3466;DHT22;1747;48.884;9.160;2024-02-23T10:29:18;7.90;99.90
3466;DHT22;1747;48.884;9.160;2024-02-23T10:31:47;7.70;99.90
3466;DHT22;1747;48.884;9.160;2024-02-23T10:34:17;7.80;99.90
3466;DHT22;1747;48.884;9.160;2024-02-23T10:36:46;7.80;99.90
3466;DHT22;1747;48.884;9.160;2024-02-23T10:39:16;7.80;99.90
3466;DHT22;1747;48.884;9.160;2024-02-23T10:41:47;7.70;99.90
3466;DHT22;1747;48.884;9.160;2024-02-23T10:44:16;7.70;99.90
3466;DHT22;1747;48.884;9.160;2024-02-23T10:46:45;7.60;99.90
3466;DHT22;1747;48.884;9.160;2024-02-23T10:49:14;7.80;99.90
3466;DHT22;1747;48.884;9.160;2024-02-23T10:51:42;7.90;99.90
